Time;durP1;ratioP1;P1;durP2;ratioP2;P2;SDS_P1;SDS_P2;PMS_P1;PMS_P2;Temp;Humidity;BMP_temperature;BMP_pressure;BME280_temperature;BME280_humidity;BME280_pressure;Samples;Min_cycle;Max_cycle;Signal;HPM_P1;HPM_P2
2023/08/05 00:01:41;;;;;;;2.28;0.73;;;;;;;;;;5921900;28;20132;-76
2023/08/05 00:04:32;;;;;;;0.60;0.60;;;;;;;;;;5909585;28;20048;-76
2023/08/05 00:07:23;;;;;;;1.27;0.80;;;;;;;;;;5905082;28;20456;-79
2023/08/05 00:10:13;;;;;;;0.52;0.38;;;;;;;;;;5913224;28;20050;-75
2023/08/05 00:13:04;;;;;;;1.02;0.70;;;;;;;;;;5904216;28;20049;-79
2023/08/05 00:15:55;;;;;;;2.15;1.23;;;;;;;;;;5912272;28;20077;-77
2023/08/05 00:18:46;;;;;;;0.90;0.73;;;;;;;;;;5904030;28;20068;-77
2023/08/05 00:21:37;;;;;;;0.30;0.30;;;;;;;;;;5911498;28;20127;-78
2023/08/05 00:24:27;;;;;;;1.33;0.85;;;;;;;;;;5912008;28;20406;-78
2023/08/05 00:27:18;;;;;;;1.65;1.00;;;;;;;;;;5903702;28;20470;-76
2023/08/05 00:30:09;;;;;;;0.77;0.50;;;;;;;;;;5911248;28;20479;-77
2023/08/05 00:33:01;;;;;;;1.42;1.15;;;;;;;;;;5903336;28;20040;-77
2023/08/05 00:35:52;;;;;;;1.17;0.65;;;;;;;;;;5911434;28;20092;-77
2023/08/05 00:38:42;;;;;;;2.13;0.75;;;;;;;;;;5902936;28;20048;-77
2023/08/05 00:41:33;;;;;;;0.47;0.43;;;;;;;;;;5906842;28;20048;-79
2023/08/05 00:44:24;;;;;;;1.33;0.85;;;;;;;;;;5906558;28;20047;-77
2023/08/05 00:47:20;;;;;;;2.72;0.63;;;;;;;;;;5902479;28;20065;-77
2023/08/05 00:50:13;;;;;;;0.98;0.65;;;;;;;;;;5911100;28;20442;-78
2023/08/05 00:53:04;;;;;;;4.07;0.82;;;;;;;;;;5902931;28;20118;-77
2023/08/05 00:55:55;;;;;;;3.78;0.85;;;;;;;;;;5893841;28;20072;-80
2023/08/05 00:58:46;;;;;;;2.33;1.45;;;;;;;;;;5902570;28;20452;-78
2023/08/05 01:01:37;;;;;;;0.57;0.50;;;;;;;;;;5872208;28;20049;-78
2023/08/05 01:04:28;;;;;;;0.30;0.20;;;;;;;;;;5907415;28;20044;-78
2023/08/05 01:07:20;;;;;;;1.00;0.52;;;;;;;;;;5902374;28;20045;-77
2023/08/05 01:10:11;;;;;;;2.10;1.15;;;;;;;;;;5893221;28;20495;-80
2023/08/05 01:13:02;;;;;;;2.70;0.85;;;;;;;;;;5902391;28;20059;-78
2023/08/05 01:15:53;;;;;;;15.52;1.30;;;;;;;;;;5911117;28;20042;-78
2023/08/05 01:18:44;;;;;;;1.17;0.65;;;;;;;;;;5902555;28;20098;-78
2023/08/05 01:21:47;;;;;;;1.73;1.05;;;;;;;;;;5888779;28;20456;-76
2023/08/05 01:24:59;;;;;;;2.72;0.93;;;;;;;;;;5906949;28;20044;-79
2023/08/05 01:27:52;;;;;;;3.65;1.00;;;;;;;;;;5916373;28;20048;-76
2023/08/05 01:30:44;;;;;;;0.47;0.47;;;;;;;;;;5916317;28;20502;-77
2023/08/05 01:33:35;;;;;;;2.20;0.77;;;;;;;;;;5920110;28;20044;-75
2023/08/05 01:36:26;;;;;;;0.50;0.50;;;;;;;;;;5920474;28;20569;-75
2023/08/05 01:39:17;;;;;;;0.90;0.63;;;;;;;;;;5938492;28;20131;-78
2023/08/05 01:42:08;;;;;;;1.23;1.05;;;;;;;;;;5930805;28;20051;-80
2023/08/05 01:44:59;;;;;;;1.13;0.70;;;;;;;;;;5939872;28;20048;-76
2023/08/05 01:47:50;;;;;;;0.57;0.57;;;;;;;;;;5930902;28;20495;-78
2023/08/05 01:50:41;;;;;;;1.65;0.68;;;;;;;;;;5940343;28;20044;-77
2023/08/05 01:53:31;;;;;;;0.95;0.68;;;;;;;;;;5931815;28;20495;-75
2023/08/05 01:56:22;;;;;;;0.43;0.43;;;;;;;;;;5939782;28;20044;-78
2023/08/05 01:59:13;;;;;;;0.60;0.47;;;;;;;;;;5939962;28;20055;-78
2023/08/05 02:02:04;;;;;;;0.65;0.50;;;;;;;;;;5931554;28;20044;-79
2023/08/05 02:04:55;;;;;;;0.50;0.50;;;;;;;;;;5932268;28;20055;-77
2023/08/05 02:07:46;;;;;;;0.73;0.63;;;;;;;;;;5930819;28;20040;-79
2023/08/05 02:10:37;;;;;;;1.67;0.80;;;;;;;;;;5939823;28;20101;-75
2023/08/05 02:13:28;;;;;;;1.75;1.08;;;;;;;;;;5930591;28;20149;-78
2023/08/05 02:16:19;;;;;;;1.30;0.73;;;;;;;;;;5939225;28;20044;-78
2023/08/05 02:19:10;;;;;;;1.52;1.10;;;;;;;;;;5938971;28;20049;-76
2023/08/05 02:22:02;;;;;;;1.42;0.57;;;;;;;;;;5930417;28;20044;-77
2023/08/05 02:24:52;;;;;;;1.60;1.02;;;;;;;;;;5917289;28;20064;-75
2023/08/05 02:27:43;;;;;;;9.27;1.63;;;;;;;;;;5905826;28;20045;-79
2023/08/05 02:30:34;;;;;;;0.55;0.52;;;;;;;;;;5914519;28;20167;-79
2023/08/05 02:33:25;;;;;;;2.20;1.05;;;;;;;;;;5905615;28;20049;-76
2023/08/05 02:36:16;;;;;;;1.08;0.88;;;;;;;;;;5913998;28;20048;-78
2023/08/05 02:39:07;;;;;;;2.75;0.90;;;;;;;;;;5913614;28;20059;-77
2023/08/05 02:41:57;;;;;;;7.57;1.65;;;;;;;;;;5906637;28;20053;-79
2023/08/05 02:44:50;;;;;;;0.82;0.68;;;;;;;;;;5912304;28;20048;-76
2023/08/05 02:47:41;;;;;;;1.05;0.82;;;;;;;;;;5904617;28;20047;-79
2023/08/05 02:50:32;;;;;;;13.02;1.17;;;;;;;;;;5913370;28;20052;-76
2023/08/05 02:53:23;;;;;;;0.70;0.70;;;;;;;;;;5905019;28;20057;-77
2023/08/05 02:56:14;;;;;;;2.80;1.00;;;;;;;;;;5911820;28;20128;-78
2023/08/05 02:59:05;;;;;;;1.02;0.93;;;;;;;;;;5905931;28;20056;-75
2023/08/05 03:01:55;;;;;;;1.90;1.33;;;;;;;;;;5898662;28;20049;-76
2023/08/05 03:04:46;;;;;;;2.03;0.77;;;;;;;;;;5911799;28;20045;-80
2023/08/05 03:07:37;;;;;;;3.83;0.60;;;;;;;;;;5904449;28;20048;-78
2023/08/05 03:10:28;;;;;;;1.08;0.98;;;;;;;;;;5912819;28;20447;-77
2023/08/05 03:13:19;;;;;;;0.93;0.88;;;;;;;;;;5904560;28;20048;-80
2023/08/05 03:16:12;;;;;;;0.50;0.50;;;;;;;;;;5912193;28;20051;-77
2023/08/05 03:19:03;;;;;;;17.50;1.40;;;;;;;;;;5905233;28;20060;-77
2023/08/05 03:21:53;;;;;;;1.50;0.98;;;;;;;;;;5906458;28;20048;-77
2023/08/05 03:24:44;;;;;;;1.60;0.73;;;;;;;;;;5931191;28;20044;-78
2023/08/05 03:27:35;;;;;;;2.42;1.40;;;;;;;;;;5935905;28;20480;-80
2023/08/05 03:30:26;;;;;;;2.47;1.25;;;;;;;;;;5917986;28;20058;-79
2023/08/05 03:33:17;;;;;;;4.43;1.38;;;;;;;;;;5936107;28;20052;-80
2023/08/05 03:36:07;;;;;;;3.08;1.05;;;;;;;;;;5935621;28;20499;-79
2023/08/05 03:38:58;;;;;;;2.55;1.40;;;;;;;;;;5936328;28;20193;-79
2023/08/05 03:41:49;;;;;;;2.50;1.42;;;;;;;;;;5935706;28;20425;-81
2023/08/05 03:44:42;;;;;;;0.65;0.63;;;;;;;;;;5935438;28;20048;-80
2023/08/05 03:47:33;;;;;;;1.60;1.25;;;;;;;;;;5935029;28;20048;-83
2023/08/05 03:50:28;;;;;;;3.17;1.70;;;;;;;;;;5935145;28;20044;-81
2023/08/05 03:53:20;;;;;;;16.33;1.88;;;;;;;;;;5935026;28;20050;-81
2023/08/05 03:56:11;;;;;;;1.73;1.42;;;;;;;;;;5934339;28;20062;-81
2023/08/05 03:59:02;;;;;;;2.92;1.40;;;;;;;;;;5934983;28;20494;-81
2023/08/05 04:01:54;;;;;;;20.75;1.58;;;;;;;;;;5935467;28;20052;-81
2023/08/05 04:04:46;;;;;;;4.00;1.08;;;;;;;;;;5934591;28;20044;-84
2023/08/05 04:07:37;;;;;;;2.13;1.27;;;;;;;;;;5934529;28;20044;-83
2023/08/05 04:10:30;;;;;;;1.92;1.20;;;;;;;;;;5933962;28;20044;-83
2023/08/05 04:13:24;;;;;;;12.98;1.77;;;;;;;;;;5934231;28;20052;-82
2023/08/05 04:16:16;;;;;;;8.38;1.20;;;;;;;;;;5934598;28;20058;-82
2023/08/05 04:19:08;;;;;;;0.68;0.63;;;;;;;;;;5934555;28;20048;-83
2023/08/05 04:22:00;;;;;;;1.23;1.13;;;;;;;;;;5935355;28;20390;-83
2023/08/05 04:24:51;;;;;;;2.67;1.00;;;;;;;;;;5934565;28;20044;-83
2023/08/05 04:27:42;;;;;;;1.30;0.77;;;;;;;;;;5935410;28;20048;-84
2023/08/05 04:30:33;;;;;;;2.70;1.85;;;;;;;;;;5934951;28;20172;-85
2023/08/05 04:33:28;;;;;;;1.52;1.40;;;;;;;;;;5934686;28;20094;-83
2023/08/05 04:36:18;;;;;;;1.77;1.38;;;;;;;;;;5917585;28;20051;-84
2023/08/05 04:39:09;;;;;;;1.27;1.17;;;;;;;;;;5934344;28;20123;-84
2023/08/05 04:42:00;;;;;;;8.38;1.52;;;;;;;;;;5934846;28;20044;-85
2023/08/05 04:44:52;;;;;;;1.77;1.27;;;;;;;;;;5934583;28;20064;-84
2023/08/05 04:47:42;;;;;;;1.50;0.65;;;;;;;;;;5934374;28;20056;-85
2023/08/05 04:50:40;;;;;;;1.27;1.10;;;;;;;;;;5933922;28;20056;-85
2023/08/05 04:53:30;;;;;;;1.38;0.63;;;;;;;;;;5934307;28;20050;-83
2023/08/05 04:56:25;;;;;;;5.78;1.35;;;;;;;;;;5929543;28;20062;-83
2023/08/05 04:59:15;;;;;;;8.45;1.52;;;;;;;;;;5923481;28;20044;-83
2023/08/05 05:02:06;;;;;;;1.20;1.10;;;;;;;;;;5934261;28;20052;-82
2023/08/05 05:04:57;;;;;;;1.98;1.25;;;;;;;;;;5934525;28;20048;-83
2023/08/05 05:07:48;;;;;;;0.95;0.52;;;;;;;;;;5936814;28;20047;-84
2023/08/05 05:10:39;;;;;;;0.95;0.73;;;;;;;;;;5938711;28;20476;-85
2023/08/05 05:13:29;;;;;;;0.45;0.35;;;;;;;;;;5938712;28;20048;-84
2023/08/05 05:16:20;;;;;;;0.73;0.63;;;;;;;;;;5934375;28;20516;-84
2023/08/05 05:19:11;;;;;;;1.67;0.47;;;;;;;;;;5926592;28;20048;-83
2023/08/05 05:22:02;;;;;;;0.60;0.60;;;;;;;;;;5938803;28;20044;-83
2023/08/05 05:24:52;;;;;;;0.90;0.75;;;;;;;;;;5920709;28;20052;-82
2023/08/05 05:27:43;;;;;;;1.00;0.50;;;;;;;;;;5920191;28;20052;-83
2023/08/05 05:30:35;;;;;;;0.35;0.35;;;;;;;;;;5938244;28;20044;-83
2023/08/05 05:33:26;;;;;;;4.75;0.77;;;;;;;;;;5938294;28;20051;-80
2023/08/05 05:36:17;;;;;;;0.20;0.20;;;;;;;;;;5934924;28;20520;-83
2023/08/05 05:39:08;;;;;;;1.00;0.68;;;;;;;;;;5925111;28;20058;-82
2023/08/05 05:41:59;;;;;;;0.55;0.50;;;;;;;;;;5938662;28;20051;-82
2023/08/05 05:44:53;;;;;;;0.70;0.50;;;;;;;;;;5938089;28;20529;-81
2023/08/05 05:47:44;;;;;;;1.58;0.93;;;;;;;;;;5938109;28;20086;-81
2023/08/05 05:50:40;;;;;;;1.23;0.45;;;;;;;;;;5938151;28;20052;-80
2023/08/05 05:53:31;;;;;;;2.20;1.13;;;;;;;;;;5937553;28;20040;-84
2023/08/05 05:56:22;;;;;;;0.50;0.50;;;;;;;;;;5933027;28;20043;-84
2023/08/05 05:59:13;;;;;;;0.35;0.35;;;;;;;;;;5926276;28;20425;-81
2023/08/05 06:02:05;;;;;;;0.22;0.22;;;;;;;;;;5937775;28;20070;-85
2023/08/05 06:04:56;;;;;;;0.10;0.10;;;;;;;;;;5938190;28;20102;-81
2023/08/05 06:07:47;;;;;;;2.22;0.77;;;;;;;;;;5937538;28;20048;-82
2023/08/05 06:10:38;;;;;;;0.57;0.57;;;;;;;;;;5937600;28;20440;-81
2023/08/05 06:13:29;;;;;;;0.75;0.75;;;;;;;;;;5937622;28;20121;-84
2023/08/05 06:16:20;;;;;;;1.15;1.05;;;;;;;;;;5933092;28;20051;-84
2023/08/05 06:19:11;;;;;;;0.30;0.30;;;;;;;;;;5924944;28;20044;-82
2023/08/05 06:22:02;;;;;;;2.25;1.30;;;;;;;;;;5937993;28;20181;-83
2023/08/05 06:24:53;;;;;;;0.15;0.15;;;;;;;;;;5939191;28;20058;-85
2023/08/05 06:27:44;;;;;;;1.25;0.70;;;;;;;;;;5937514;28;20051;-82
2023/08/05 06:30:35;;;;;;;0.30;0.30;;;;;;;;;;5920956;28;20419;-82
2023/08/05 06:33:27;;;;;;;0.43;0.43;;;;;;;;;;5938891;28;20135;-82
2023/08/05 06:36:17;;;;;;;0.65;0.65;;;;;;;;;;5915884;28;20058;-80
2023/08/05 06:39:08;;;;;;;0.77;0.77;;;;;;;;;;5924240;28;20048;-83
2023/08/05 06:41:59;;;;;;;0.82;0.82;;;;;;;;;;5937493;28;20085;-82
2023/08/05 06:44:51;;;;;;;3.13;0.40;;;;;;;;;;5936901;28;20586;-81
2023/08/05 06:47:41;;;;;;;2.38;1.08;;;;;;;;;;5936833;28;20174;-82
2023/08/05 06:50:33;;;;;;;1.65;0.98;;;;;;;;;;5936736;28;20059;-81
2023/08/05 06:53:24;;;;;;;0.57;0.43;;;;;;;;;;5936774;28;20864;-82
2023/08/05 06:56:14;;;;;;;0.63;0.63;;;;;;;;;;5936524;28;20421;-81
2023/08/05 06:59:05;;;;;;;1.02;0.60;;;;;;;;;;5936796;28;20058;-81
2023/08/05 07:01:56;;;;;;;1.13;0.40;;;;;;;;;;5937142;28;20054;-80
2023/08/05 07:04:47;;;;;;;3.38;1.48;;;;;;;;;;5936445;28;20040;-80
2023/08/05 07:07:38;;;;;;;2.80;0.88;;;;;;;;;;5936300;28;20540;-80
2023/08/05 07:10:29;;;;;;;1.27;1.00;;;;;;;;;;5936475;28;20043;-81
2023/08/05 07:13:20;;;;;;;0.73;0.73;;;;;;;;;;5936389;28;20048;-80
2023/08/05 07:16:11;;;;;;;1.58;0.85;;;;;;;;;;5936087;28;20089;-80
2023/08/05 07:19:02;;;;;;;1.52;0.80;;;;;;;;;;5936492;28;20047;-79
2023/08/05 07:21:53;;;;;;;0.70;0.70;;;;;;;;;;5936741;28;20080;-79
2023/08/05 07:24:44;;;;;;;0.40;0.40;;;;;;;;;;5935980;28;20044;-81
2023/08/05 07:27:35;;;;;;;0.55;0.55;;;;;;;;;;5936034;28;20506;-82
2023/08/05 07:30:25;;;;;;;0.85;0.50;;;;;;;;;;5935365;28;20496;-80
2023/08/05 07:33:17;;;;;;;4.18;1.08;;;;;;;;;;5935527;28;20132;-81
2023/08/05 07:36:12;;;;;;;3.30;0.82;;;;;;;;;;5917683;28;20052;-82
2023/08/05 07:39:07;;;;;;;3.13;1.17;;;;;;;;;;5901878;28;20521;-82
2023/08/05 07:41:57;;;;;;;2.15;0.52;;;;;;;;;;5936058;28;20055;-80
2023/08/05 07:44:51;;;;;;;0.45;0.40;;;;;;;;;;5935505;28;20040;-82
2023/08/05 07:47:43;;;;;;;0.52;0.50;;;;;;;;;;5935539;28;20050;-80
2023/08/05 07:50:34;;;;;;;0.68;0.57;;;;;;;;;;5935504;28;20048;-80
2023/08/05 07:53:25;;;;;;;1.20;0.77;;;;;;;;;;5935613;28;20423;-80
2023/08/05 07:56:16;;;;;;;0.40;0.30;;;;;;;;;;5932514;28;20054;-79
2023/08/05 07:59:07;;;;;;;2.13;1.23;;;;;;;;;;5922478;28;20163;-80
2023/08/05 08:01:59;;;;;;;1.70;0.50;;;;;;;;;;5917883;28;20047;-79
2023/08/05 08:04:54;;;;;;;0.75;0.70;;;;;;;;;;5935069;28;20576;-80
2023/08/05 08:07:46;;;;;;;1.33;0.50;;;;;;;;;;5935025;28;20076;-81
2023/08/05 08:10:37;;;;;;;0.90;0.73;;;;;;;;;;5935027;28;20040;-79
2023/08/05 08:13:28;;;;;;;0.65;0.57;;;;;;;;;;5935087;28;20514;-79
2023/08/05 08:16:20;;;;;;;0.82;0.65;;;;;;;;;;5930969;28;20052;-79
2023/08/05 08:19:13;;;;;;;1.75;0.88;;;;;;;;;;5922889;28;20609;-78
2023/08/05 08:22:04;;;;;;;0.82;0.68;;;;;;;;;;5934952;28;20048;-78
2023/08/05 08:24:55;;;;;;;2.33;0.98;;;;;;;;;;5935270;28;20067;-80
2023/08/05 08:27:45;;;;;;;1.40;0.90;;;;;;;;;;5934584;28;20047;-79
2023/08/05 08:30:36;;;;;;;3.40;0.80;;;;;;;;;;5934781;28;20456;-77
2023/08/05 08:33:28;;;;;;;1.55;1.05;;;;;;;;;;5934465;28;20048;-77
2023/08/05 08:36:19;;;;;;;0.70;0.68;;;;;;;;;;5929741;28;20498;-78
2023/08/05 08:39:09;;;;;;;0.80;0.70;;;;;;;;;;5922312;28;20071;-78
2023/08/05 08:42:01;;;;;;;18.15;1.27;;;;;;;;;;5916962;28;20059;-79
2023/08/05 08:44:53;;;;;;;0.82;0.52;;;;;;;;;;5916847;28;20154;-78
2023/08/05 08:47:46;;;;;;;3.38;0.90;;;;;;;;;;5916378;28;20046;-77
2023/08/05 08:50:39;;;;;;;0.50;0.50;;;;;;;;;;5916733;28;20044;-79
2023/08/05 08:53:32;;;;;;;0.73;0.70;;;;;;;;;;5934432;28;20047;-77
2023/08/05 08:56:23;;;;;;;3.13;0.95;;;;;;;;;;5911487;28;20051;-78
2023/08/05 08:59:14;;;;;;;2.92;0.75;;;;;;;;;;5905485;28;20507;-78
2023/08/05 09:02:15;;;;;;;2.63;1.33;;;;;;;;;;5934151;28;20052;-79
2023/08/05 09:05:07;;;;;;;1.92;1.13;;;;;;;;;;5934498;28;20410;-79
2023/08/05 09:08:00;;;;;;;0.80;0.63;;;;;;;;;;5916820;28;20081;-78
2023/08/05 09:10:51;;;;;;;1.27;0.82;;;;;;;;;;5916559;28;20051;-77
2023/08/05 09:13:43;;;;;;;5.40;1.30;;;;;;;;;;5934254;28;20521;-78
2023/08/05 09:16:36;;;;;;;1.95;1.42;;;;;;;;;;5908274;28;20041;-79
2023/08/05 09:19:28;;;;;;;1.58;0.82;;;;;;;;;;5926993;28;20044;-77
2023/08/05 09:22:19;;;;;;;2.45;1.08;;;;;;;;;;5916207;28;20050;-77
2023/08/05 09:25:10;;;;;;;3.33;1.33;;;;;;;;;;5934021;28;20056;-80
2023/08/05 09:28:01;;;;;;;1.42;0.88;;;;;;;;;;5934383;28;20140;-78
2023/08/05 09:30:52;;;;;;;0.80;0.80;;;;;;;;;;5916241;28;20052;-78
2023/08/05 09:33:43;;;;;;;0.93;0.73;;;;;;;;;;5934012;28;20097;-78
2023/08/05 09:36:34;;;;;;;0.90;0.80;;;;;;;;;;5934096;28;20074;-78
2023/08/05 09:39:42;;;;;;;1.33;1.15;;;;;;;;;;5933900;28;20050;-78
2023/08/05 09:42:32;;;;;;;0.85;0.82;;;;;;;;;;5934121;28;20097;-77
2023/08/05 09:45:25;;;;;;;2.20;1.10;;;;;;;;;;5934157;28;20040;-79
2023/08/05 09:48:16;;;;;;;1.38;0.95;;;;;;;;;;5933746;28;20051;-77
2023/08/05 09:51:08;;;;;;;1.58;1.10;;;;;;;;;;5898826;28;20055;-78
2023/08/05 09:54:05;;;;;;;1.15;0.88;;;;;;;;;;5921931;28;20048;-77
2023/08/05 09:56:57;;;;;;;1.33;0.68;;;;;;;;;;5938289;28;20534;-78
2023/08/05 09:59:49;;;;;;;0.98;0.95;;;;;;;;;;5920243;28;20048;-77
2023/08/05 10:02:45;;;;;;;2.30;1.83;;;;;;;;;;5938204;28;20132;-78
2023/08/05 10:05:39;;;;;;;3.83;1.13;;;;;;;;;;5937923;28;20240;-78
2023/08/05 10:08:39;;;;;;;1.50;1.40;;;;;;;;;;5937914;28;20502;-77
2023/08/05 10:11:31;;;;;;;2.53;1.60;;;;;;;;;;5930855;28;20468;-77
2023/08/05 10:14:26;;;;;;;1.33;1.10;;;;;;;;;;5910814;28;20484;-78
2023/08/05 10:17:18;;;;;;;2.50;0.93;;;;;;;;;;5903281;28;20510;-77
2023/08/05 10:20:12;;;;;;;2.28;1.58;;;;;;;;;;5937769;28;20052;-78
2023/08/05 10:23:13;;;;;;;1.80;1.63;;;;;;;;;;5919518;28;20044;-77
2023/08/05 10:26:05;;;;;;;2.53;1.10;;;;;;;;;;5937407;28;20475;-79
2023/08/05 10:28:56;;;;;;;2.42;1.67;;;;;;;;;;5937598;28;20136;-78
2023/08/05 10:31:47;;;;;;;2.20;1.52;;;;;;;;;;5937276;28;20516;-77
2023/08/05 10:34:39;;;;;;;1.48;1.38;;;;;;;;;;5937106;28;20101;-77
2023/08/05 10:37:48;;;;;;;3.67;2.03;;;;;;;;;;5937291;28;20117;-77
2023/08/05 10:40:38;;;;;;;2.88;1.55;;;;;;;;;;5937041;28;20490;-77
2023/08/05 10:43:41;;;;;;;3.95;2.05;;;;;;;;;;5937028;28;20043;-77
2023/08/05 10:46:31;;;;;;;6.97;2.30;;;;;;;;;;5911996;28;20052;-77
2023/08/05 10:49:24;;;;;;;7.05;1.58;;;;;;;;;;5928037;28;20044;-77
2023/08/05 10:52:18;;;;;;;2.25;1.67;;;;;;;;;;5918948;28;20048;-77
2023/08/05 10:55:12;;;;;;;3.00;2.13;;;;;;;;;;5936609;28;20048;-77
2023/08/05 10:58:06;;;;;;;6.30;1.65;;;;;;;;;;5936725;28;20510;-77
2023/08/05 11:00:59;;;;;;;1.55;1.13;;;;;;;;;;5937220;28;20054;-78
2023/08/05 11:03:56;;;;;;;4.00;2.42;;;;;;;;;;5936640;28;20128;-76
2023/08/05 11:06:49;;;;;;;1.88;1.63;;;;;;;;;;5924818;28;20045;-78
2023/08/05 11:09:40;;;;;;;1.65;1.35;;;;;;;;;;5914373;28;20518;-79
2023/08/05 11:12:31;;;;;;;1.15;1.05;;;;;;;;;;5936451;28;20135;-77
2023/08/05 11:15:22;;;;;;;2.55;1.95;;;;;;;;;;5936346;28;20160;-79
2023/08/05 11:18:13;;;;;;;2.30;1.55;;;;;;;;;;5918073;28;20044;-78
2023/08/05 11:21:07;;;;;;;1.25;1.15;;;;;;;;;;5936296;28;20054;-78
2023/08/05 11:23:59;;;;;;;3.83;1.63;;;;;;;;;;5918536;28;20101;-77
2023/08/05 11:26:50;;;;;;;2.33;1.75;;;;;;;;;;5923939;28;20484;-78
2023/08/05 11:29:41;;;;;;;2.80;1.80;;;;;;;;;;5914171;28;20051;-78
2023/08/05 11:32:52;;;;;;;3.65;2.40;;;;;;;;;;5935748;28;20040;-79
2023/08/05 11:35:45;;;;;;;2.47;1.70;;;;;;;;;;5918216;28;20044;-78
2023/08/05 11:38:38;;;;;;;1.33;1.20;;;;;;;;;;5917852;28;20040;-81
2023/08/05 11:41:29;;;;;;;3.25;2.08;;;;;;;;;;5929318;28;20045;-78
2023/08/05 11:44:21;;;;;;;1.80;0.95;;;;;;;;;;5926041;28;20414;-79
2023/08/05 11:47:12;;;;;;;8.60;1.63;;;;;;;;;;5917581;28;20068;-79
2023/08/05 11:50:03;;;;;;;1.88;1.10;;;;;;;;;;5935580;28;20054;-78
2023/08/05 11:53:08;;;;;;;6.22;1.77;;;;;;;;;;5917936;28;20051;-77
2023/08/05 11:55:59;;;;;;;2.88;1.80;;;;;;;;;;5935894;28;20122;-78
2023/08/05 11:58:50;;;;;;;2.60;1.50;;;;;;;;;;5935732;28;20048;-79
2023/08/05 12:01:41;;;;;;;2.53;1.80;;;;;;;;;;5907363;28;20041;-77
2023/08/05 12:04:32;;;;;;;5.43;1.88;;;;;;;;;;5929037;28;20498;-77
2023/08/05 12:07:22;;;;;;;3.45;2.22;;;;;;;;;;5917178;28;20047;-79
2023/08/05 12:10:16;;;;;;;6.20;2.05;;;;;;;;;;5934778;28;20048;-79
2023/08/05 12:13:08;;;;;;;1.98;1.30;;;;;;;;;;5935002;28;20047;-79
2023/08/05 12:16:00;;;;;;;1.48;0.93;;;;;;;;;;5935150;28;20052;-79
2023/08/05 12:18:51;;;;;;;4.28;2.08;;;;;;;;;;5917409;28;20418;-78
2023/08/05 12:21:42;;;;;;;2.53;1.95;;;;;;;;;;5924990;28;20083;-79
2023/08/05 12:24:33;;;;;;;2.70;1.33;;;;;;;;;;5928896;28;20059;-77
2023/08/05 12:27:23;;;;;;;3.65;1.67;;;;;;;;;;5934975;28;20048;-80
2023/08/05 12:30:15;;;;;;;2.75;1.45;;;;;;;;;;5934880;28;20052;-77
2023/08/05 12:33:06;;;;;;;3.30;1.60;;;;;;;;;;5934844;28;20133;-78
2023/08/05 12:36:00;;;;;;;1.60;1.42;;;;;;;;;;5935828;28;20497;-79
2023/08/05 12:38:52;;;;;;;1.15;1.05;;;;;;;;;;5917359;28;20411;-78
2023/08/05 12:41:43;;;;;;;3.47;1.52;;;;;;;;;;5924285;28;20365;-81
2023/08/05 12:44:34;;;;;;;3.67;1.35;;;;;;;;;;5929289;28;20576;-79
2023/08/05 12:47:25;;;;;;;2.17;1.50;;;;;;;;;;5916789;28;20052;-78
2023/08/05 12:50:16;;;;;;;1.83;1.63;;;;;;;;;;5916774;28;20055;-78
2023/08/05 12:53:07;;;;;;;2.70;1.63;;;;;;;;;;5934436;28;20070;-78
2023/08/05 12:55:58;;;;;;;4.05;1.98;;;;;;;;;;5935477;28;20055;-79
2023/08/05 12:58:48;;;;;;;2.58;1.45;;;;;;;;;;5934634;28;20040;-77
2023/08/05 13:01:42;;;;;;;2.85;1.95;;;;;;;;;;5924512;28;20123;-78
2023/08/05 13:04:34;;;;;;;2.60;1.60;;;;;;;;;;5911225;28;20054;-78
2023/08/05 13:07:24;;;;;;;1.63;1.52;;;;;;;;;;5934620;28;20699;-80
2023/08/05 13:10:17;;;;;;;3.30;1.88;;;;;;;;;;5934266;28;20044;-79
2023/08/05 13:13:08;;;;;;;2.88;2.20;;;;;;;;;;5934319;28;20491;-80
2023/08/05 13:15:58;;;;;;;4.75;2.15;;;;;;;;;;5935722;28;20059;-78
2023/08/05 13:18:49;;;;;;;2.28;1.73;;;;;;;;;;5918314;28;20040;-79
2023/08/05 13:21:40;;;;;;;1.67;1.42;;;;;;;;;;5907474;28;20106;-80
2023/08/05 13:24:33;;;;;;;2.70;1.65;;;;;;;;;;5928778;28;20058;-79
2023/08/05 13:27:26;;;;;;;3.92;2.10;;;;;;;;;;5937037;28;20043;-80
2023/08/05 13:30:17;;;;;;;3.92;1.80;;;;;;;;;;5941087;28;20060;-78
2023/08/05 13:33:07;;;;;;;18.58;2.40;;;;;;;;;;5943270;28;20131;-78
2023/08/05 13:35:58;;;;;;;1.90;1.67;;;;;;;;;;5922534;28;20047;-77
2023/08/05 13:38:49;;;;;;;1.23;1.10;;;;;;;;;;5922995;28;20123;-77
2023/08/05 13:41:40;;;;;;;3.90;1.60;;;;;;;;;;5930286;28;20055;-78
2023/08/05 13:44:31;;;;;;;3.10;1.58;;;;;;;;;;5934046;28;20601;-77
2023/08/05 13:47:22;;;;;;;2.30;1.75;;;;;;;;;;5939991;28;20405;-77
2023/08/05 13:50:15;;;;;;;1.50;1.38;;;;;;;;;;5942467;28;20414;-78
2023/08/05 13:53:06;;;;;;;2.35;1.70;;;;;;;;;;5942485;28;20048;-78
2023/08/05 13:55:58;;;;;;;2.20;1.52;;;;;;;;;;5941291;28;20051;-78
2023/08/05 13:58:49;;;;;;;14.13;2.10;;;;;;;;;;5943349;28;20473;-79
2023/08/05 14:01:43;;;;;;;2.70;1.75;;;;;;;;;;5936029;28;20048;-80
2023/08/05 14:04:35;;;;;;;4.07;2.05;;;;;;;;;;5940079;28;20056;-78
2023/08/05 14:07:26;;;;;;;3.50;2.47;;;;;;;;;;5945505;28;20388;-78
2023/08/05 14:10:17;;;;;;;4.68;1.58;;;;;;;;;;5944314;28;20048;-78
2023/08/05 14:13:08;;;;;;;2.65;1.77;;;;;;;;;;5942561;28;20128;-79
2023/08/05 14:15:59;;;;;;;2.50;1.50;;;;;;;;;;5943640;28;20105;-78
2023/08/05 14:18:50;;;;;;;4.57;1.63;;;;;;;;;;5942074;28;20044;-77
2023/08/05 14:21:40;;;;;;;2.17;1.50;;;;;;;;;;5934205;28;20051;-79
2023/08/05 14:24:32;;;;;;;2.60;1.30;;;;;;;;;;5903318;28;20051;-78
2023/08/05 14:27:22;;;;;;;3.65;1.92;;;;;;;;;;5921798;28;20125;-79
2023/08/05 14:30:15;;;;;;;2.80;1.88;;;;;;;;;;5921174;28;20406;-77
2023/08/05 14:33:21;;;;;;;4.63;2.13;;;;;;;;;;5938453;28;20102;-77
2023/08/05 14:36:13;;;;;;;1.38;1.25;;;;;;;;;;5938348;28;20058;-79
2023/08/05 14:39:04;;;;;;;2.42;1.42;;;;;;;;;;5920454;28;20063;-78
2023/08/05 14:41:55;;;;;;;2.42;1.38;;;;;;;;;;5939146;28;20050;-80
2023/08/05 14:44:46;;;;;;;6.65;1.88;;;;;;;;;;5938852;28;20113;-80
2023/08/05 14:47:37;;;;;;;4.10;2.40;;;;;;;;;;5922227;28;20050;-80
2023/08/05 14:50:27;;;;;;;4.88;2.67;;;;;;;;;;5941124;28;20055;-79
2023/08/05 14:53:18;;;;;;;1.50;1.08;;;;;;;;;;5921927;28;20047;-81
2023/08/05 14:56:09;;;;;;;5.10;1.95;;;;;;;;;;5937420;28;20044;-80
2023/08/05 14:59:00;;;;;;;2.25;2.05;;;;;;;;;;5931952;28;20532;-81
2023/08/05 15:01:51;;;;;;;2.65;1.88;;;;;;;;;;5936837;28;20080;-82
2023/08/05 15:04:42;;;;;;;2.15;1.50;;;;;;;;;;5939038;28;20127;-81
2023/08/05 15:07:33;;;;;;;2.90;1.88;;;;;;;;;;5938274;28;20054;-82
2023/08/05 15:10:24;;;;;;;13.85;1.80;;;;;;;;;;5939285;28;20044;-79
2023/08/05 15:13:14;;;;;;;2.58;1.80;;;;;;;;;;5938764;28;20115;-80
2023/08/05 15:16:05;;;;;;;6.47;2.60;;;;;;;;;;5939505;28;20048;-83
2023/08/05 15:18:56;;;;;;;2.78;2.33;;;;;;;;;;5938798;28;20044;-81
2023/08/05 15:21:47;;;;;;;1.77;1.50;;;;;;;;;;5938081;28;20054;-82
2023/08/05 15:24:39;;;;;;;2.50;1.85;;;;;;;;;;5937953;28;20047;-83
2023/08/05 15:27:29;;;;;;;13.18;1.27;;;;;;;;;;5939112;28;20149;-81
2023/08/05 15:30:20;;;;;;;3.63;1.77;;;;;;;;;;5936116;28;20043;-82
2023/08/05 15:33:12;;;;;;;2.40;1.40;;;;;;;;;;5935739;28;20044;-79
2023/08/05 15:36:13;;;;;;;5.88;1.92;;;;;;;;;;5935352;28;20048;-80
2023/08/05 15:39:04;;;;;;;2.53;1.73;;;;;;;;;;5935042;28;20066;-80
2023/08/05 15:41:55;;;;;;;3.75;2.15;;;;;;;;;;5923471;28;20131;-81
2023/08/05 15:44:46;;;;;;;4.03;2.35;;;;;;;;;;5935218;28;20055;-81
2023/08/05 15:49:17;;;;;;;2.35;2.10;;;;;;;;;;5874429;28;20388;-82
2023/08/05 15:52:10;;;;;;;1.90;1.45;;;;;;;;;;5851924;28;20493;-83
2023/08/05 15:55:02;;;;;;;2.10;1.88;;;;;;;;;;5859195;28;20049;-84
2023/08/05 15:57:53;;;;;;;12.35;1.75;;;;;;;;;;5858823;28;20517;-81
2023/08/05 16:00:44;;;;;;;2.25;1.55;;;;;;;;;;5854276;28;20056;-85
2023/08/05 16:03:38;;;;;;;1.30;1.05;;;;;;;;;;5858195;28;20562;-83
2023/08/05 16:06:29;;;;;;;2.10;1.48;;;;;;;;;;5875164;28;20078;-82
2023/08/05 16:09:19;;;;;;;2.70;1.80;;;;;;;;;;5871734;28;20037;-82
2023/08/05 16:12:11;;;;;;;4.13;1.77;;;;;;;;;;5872367;28;20592;-82
2023/08/05 16:15:03;;;;;;;3.08;1.23;;;;;;;;;;5874993;28;20515;-83
2023/08/05 16:17:54;;;;;;;1.20;1.02;;;;;;;;;;5870580;28;20556;-81
2023/08/05 16:20:44;;;;;;;0.70;0.70;;;;;;;;;;5875607;28;20049;-83
2023/08/05 16:23:35;;;;;;;1.27;1.10;;;;;;;;;;5877281;28;20604;-78
2023/08/05 16:26:26;;;;;;;1.13;0.85;;;;;;;;;;5864930;28;20042;-78
2023/08/05 16:29:17;;;;;;;3.03;1.42;;;;;;;;;;5861154;28;20467;-78
2023/08/05 16:32:10;;;;;;;1.65;0.95;;;;;;;;;;5862800;28;20081;-80
2023/08/05 16:35:01;;;;;;;1.88;1.23;;;;;;;;;;5863791;28;20045;-80
2023/08/05 16:37:53;;;;;;;8.85;1.58;;;;;;;;;;5860788;28;20045;-81
2023/08/05 16:40:44;;;;;;;1.33;1.13;;;;;;;;;;5862763;28;20050;-78
2023/08/05 16:43:35;;;;;;;1.45;1.17;;;;;;;;;;5862998;28;20056;-79
2023/08/05 16:46:26;;;;;;;1.95;1.70;;;;;;;;;;5862557;28;20621;-80
2023/08/05 16:49:36;;;;;;;2.35;1.48;;;;;;;;;;5861376;28;20041;-82
2023/08/05 16:52:27;;;;;;;1.83;1.55;;;;;;;;;;5860723;28;20065;-82
2023/08/05 16:55:18;;;;;;;2.47;1.48;;;;;;;;;;5861211;28;20130;-81
2023/08/05 16:58:09;;;;;;;0.82;0.80;;;;;;;;;;5859543;28;20041;-82
2023/08/05 17:00:59;;;;;;;1.83;1.67;;;;;;;;;;5846755;28;20088;-80
2023/08/05 17:03:50;;;;;;;3.65;1.45;;;;;;;;;;5846343;28;20560;-80
2023/08/05 17:06:41;;;;;;;1.95;1.52;;;;;;;;;;5846742;28;20038;-79
2023/08/05 17:09:32;;;;;;;3.88;1.58;;;;;;;;;;5846179;28;20041;-79
2023/08/05 17:12:23;;;;;;;1.20;1.10;;;;;;;;;;5845455;28;20408;-80